sensor_id;sensor_type;location;lat;lon;timestamp;temperature;humidity
24614;DHT22;12760;46.296;25.290;2023-07-13T00:01:33;23.50;99.90
24614;DHT22;12760;46.296;25.290;2023-07-13T00:03:59;23.50;99.90
24614;DHT22;12760;46.296;25.290;2023-07-13T00:06:25;23.50;99.90
24614;DHT22;12760;46.296;25.290;2023-07-13T00:08:50;23.60;99.90
24614;DHT22;12760;46.296;25.290;2023-07-13T00:11:17;23.60;99.90
24614;DHT22;12760;46.296;25.290;2023-07-13T00:13:43;23.40;99.90
24614;DHT22;12760;46.296;25.290;2023-07-13T00:16:11;23.50;99.90
24614;DHT22;12760;46.296;25.290;2023-07-13T00:18:37;23.40;99.90
24614;DHT22;12760;46.296;25.290;2023-07-13T00:21:03;23.40;99.90
24614;DHT22;12760;46.296;25.290;2023-07-13T00:23:37;23.30;99.90
24614;DHT22;12760;46.296;25.290;2023-07-13T00:26:05;23.30;99.90
24614;DHT22;12760;46.296;25.290;2023-07-13T00:28:31;23.20;99.90
24614;DHT22;12760;46.296;25.290;2023-07-13T00:30:57;23.20;99.90
24614;DHT22;12760;46.296;25.290;2023-07-13T00:33:23;23.30;99.90
24614;DHT22;12760;46.296;25.290;2023-07-13T00:35:50;23.30;99.90
24614;DHT22;12760;46.296;25.290;2023-07-13T00:38:16;23.40;99.90
24614;DHT22;12760;46.296;25.290;2023-07-13T00:40:42;23.30;99.90
24614;DHT22;12760;46.296;25.290;2023-07-13T00:43:15;23.20;99.90
24614;DHT22;12760;46.296;25.290;2023-07-13T00:48:15;23.20;99.90
24614;DHT22;12760;46.296;25.290;2023-07-13T00:50:41;23.10;99.90
24614;DHT22;12760;46.296;25.290;2023-07-13T00:53:09;23.00;99.90
24614;DHT22;12760;46.296;25.290;2023-07-13T00:55:36;23.00;99.90
24614;DHT22;12760;46.296;25.290;2023-07-13T00:58:02;23.00;99.90
24614;DHT22;12760;46.296;25.290;2023-07-13T01:00:29;22.90;99.90
24614;DHT22;12760;46.296;25.290;2023-07-13T01:02:55;22.80;99.90
24614;DHT22;12760;46.296;25.290;2023-07-13T01:05:22;22.80;99.90
24614;DHT22;12760;46.296;25.290;2023-07-13T01:07:49;22.80;99.90
24614;DHT22;12760;46.296;25.290;2023-07-13T01:10:16;22.80;99.90
24614;DHT22;12760;46.296;25.290;2023-07-13T01:12:43;22.70;99.90
24614;DHT22;12760;46.296;25.290;2023-07-13T01:15:40;22.60;99.90
24614;DHT22;12760;46.296;25.290;2023-07-13T01:18:09;22.60;99.90
24614;DHT22;12760;46.296;25.290;2023-07-13T01:20:36;22.50;99.90
24614;DHT22;12760;46.296;25.290;2023-07-13T01:23:11;22.50;99.90
24614;DHT22;12760;46.296;25.290;2023-07-13T01:25:38;22.50;99.90
24614;DHT22;12760;46.296;25.290;2023-07-13T01:28:06;22.50;99.90
24614;DHT22;12760;46.296;25.290;2023-07-13T01:30:35;22.50;99.90
24614;DHT22;12760;46.296;25.290;2023-07-13T01:33:01;22.60;99.90
24614;DHT22;12760;46.296;25.290;2023-07-13T01:35:27;22.60;99.90
24614;DHT22;12760;46.296;25.290;2023-07-13T01:37:53;22.60;99.90
24614;DHT22;12760;46.296;25.290;2023-07-13T01:40:19;22.60;99.90
24614;DHT22;12760;46.296;25.290;2023-07-13T01:42:45;22.60;99.90
24614;DHT22;12760;46.296;25.290;2023-07-13T01:45:11;22.70;99.90
24614;DHT22;12760;46.296;25.290;2023-07-13T01:47:37;22.60;99.90
24614;DHT22;12760;46.296;25.290;2023-07-13T01:50:03;22.60;99.90
24614;DHT22;12760;46.296;25.290;2023-07-13T01:52:29;22.60;99.90
24614;DHT22;12760;46.296;25.290;2023-07-13T01:54:55;22.50;99.90
24614;DHT22;12760;46.296;25.290;2023-07-13T01:57:21;22.50;99.90
24614;DHT22;12760;46.296;25.290;2023-07-13T01:59:46;22.50;99.90
24614;DHT22;12760;46.296;25.290;2023-07-13T02:02:12;22.50;99.90
24614;DHT22;12760;46.296;25.290;2023-07-13T02:04:38;22.40;99.90
24614;DHT22;12760;46.296;25.290;2023-07-13T02:07:04;22.50;99.90
24614;DHT22;12760;46.296;25.290;2023-07-13T02:09:29;22.40;99.90
24614;DHT22;12760;46.296;25.290;2023-07-13T02:11:56;22.40;99.90
24614;DHT22;12760;46.296;25.290;2023-07-13T02:14:22;22.30;99.90
24614;DHT22;12760;46.296;25.290;2023-07-13T02:16:48;22.40;99.90
24614;DHT22;12760;46.296;25.290;2023-07-13T02:19:14;22.40;99.90
24614;DHT22;12760;46.296;25.290;2023-07-13T02:21:40;22.40;99.90
24614;DHT22;12760;46.296;25.290;2023-07-13T02:24:05;22.50;99.90
24614;DHT22;12760;46.296;25.290;2023-07-13T02:26:31;22.40;99.90
24614;DHT22;12760;46.296;25.290;2023-07-13T02:28:57;22.40;99.90
24614;DHT22;12760;46.296;25.290;2023-07-13T02:31:23;22.40;99.90
24614;DHT22;12760;46.296;25.290;2023-07-13T02:33:48;22.40;99.90
24614;DHT22;12760;46.296;25.290;2023-07-13T02:36:14;22.30;99.90
24614;DHT22;12760;46.296;25.290;2023-07-13T02:38:42;22.20;99.90
24614;DHT22;12760;46.296;25.290;2023-07-13T02:41:08;22.20;99.90
24614;DHT22;12760;46.296;25.290;2023-07-13T02:43:35;22.00;99.90
24614;DHT22;12760;46.296;25.290;2023-07-13T02:46:01;22.10;99.90
24614;DHT22;12760;46.296;25.290;2023-07-13T02:48:35;22.00;99.90
24614;DHT22;12760;46.296;25.290;2023-07-13T02:51:01;21.80;99.90
24614;DHT22;12760;46.296;25.290;2023-07-13T02:53:26;21.70;99.90
24614;DHT22;12760;46.296;25.290;2023-07-13T02:55:52;21.60;99.90
24614;DHT22;12760;46.296;25.290;2023-07-13T02:58:18;21.60;99.90
24614;DHT22;12760;46.296;25.290;2023-07-13T03:00:45;21.50;99.90
24614;DHT22;12760;46.296;25.290;2023-07-13T03:03:12;21.60;99.90
24614;DHT22;12760;46.296;25.290;2023-07-13T03:05:41;21.70;99.90
24614;DHT22;12760;46.296;25.290;2023-07-13T03:08:11;21.80;99.90
24614;DHT22;12760;46.296;25.290;2023-07-13T03:10:37;21.90;99.90
24614;DHT22;12760;46.296;25.290;2023-07-13T03:13:05;21.90;99.90
24614;DHT22;12760;46.296;25.290;2023-07-13T03:15:31;21.90;99.90
24614;DHT22;12760;46.296;25.290;2023-07-13T03:17:56;21.90;99.90
24614;DHT22;12760;46.296;25.290;2023-07-13T03:20:22;22.00;99.90
24614;DHT22;12760;46.296;25.290;2023-07-13T03:22:48;21.90;99.90
24614;DHT22;12760;46.296;25.290;2023-07-13T03:25:14;22.00;99.90
24614;DHT22;12760;46.296;25.290;2023-07-13T03:27:39;21.90;99.90
24614;DHT22;12760;46.296;25.290;2023-07-13T03:30:06;21.80;99.90
24614;DHT22;12760;46.296;25.290;2023-07-13T03:32:32;21.70;99.90
24614;DHT22;12760;46.296;25.290;2023-07-13T03:34:58;21.60;99.90
24614;DHT22;12760;46.296;25.290;2023-07-13T03:37:24;21.60;99.90
24614;DHT22;12760;46.296;25.290;2023-07-13T03:39:50;21.70;99.90
24614;DHT22;12760;46.296;25.290;2023-07-13T03:42:16;21.70;99.90
24614;DHT22;12760;46.296;25.290;2023-07-13T03:44:42;21.60;99.90
24614;DHT22;12760;46.296;25.290;2023-07-13T03:47:11;21.60;99.90
24614;DHT22;12760;46.296;25.290;2023-07-13T03:49:37;21.60;99.90
24614;DHT22;12760;46.296;25.290;2023-07-13T03:52:03;21.70;99.90
24614;DHT22;12760;46.296;25.290;2023-07-13T03:54:28;21.60;99.90
24614;DHT22;12760;46.296;25.290;2023-07-13T03:56:54;21.70;99.90
24614;DHT22;12760;46.296;25.290;2023-07-13T03:59:20;21.70;99.90
24614;DHT22;12760;46.296;25.290;2023-07-13T04:01:46;21.70;99.90
24614;DHT22;12760;46.296;25.290;2023-07-13T04:04:12;21.70;99.90
24614;DHT22;12760;46.296;25.290;2023-07-13T04:06:37;21.60;99.90
24614;DHT22;12760;46.296;25.290;2023-07-13T04:09:04;21.60;99.90
24614;DHT22;12760;46.296;25.290;2023-07-13T04:11:34;21.70;99.90
24614;DHT22;12760;46.296;25.290;2023-07-13T04:14:02;21.70;99.90
24614;DHT22;12760;46.296;25.290;2023-07-13T04:16:28;21.70;99.90
24614;DHT22;12760;46.296;25.290;2023-07-13T04:18:55;21.70;99.90
24614;DHT22;12760;46.296;25.290;2023-07-13T04:21:26;21.70;99.90
24614;DHT22;12760;46.296;25.290;2023-07-13T04:23:52;21.70;99.90
24614;DHT22;12760;46.296;25.290;2023-07-13T04:26:18;21.70;99.90
24614;DHT22;12760;46.296;25.290;2023-07-13T04:28:46;21.80;99.90
24614;DHT22;12760;46.296;25.290;2023-07-13T04:31:13;21.70;99.90
24614;DHT22;12760;46.296;25.290;2023-07-13T04:33:39;21.70;99.90
24614;DHT22;12760;46.296;25.290;2023-07-13T04:36:05;21.70;99.90
24614;DHT22;12760;46.296;25.290;2023-07-13T04:38:32;21.70;99.90
24614;DHT22;12760;46.296;25.290;2023-07-13T04:41:03;21.70;99.90
24614;DHT22;12760;46.296;25.290;2023-07-13T04:43:30;21.70;99.90
24614;DHT22;12760;46.296;25.290;2023-07-13T04:45:57;21.90;99.90
24614;DHT22;12760;46.296;25.290;2023-07-13T04:48:23;22.00;99.90
24614;DHT22;12760;46.296;25.290;2023-07-13T04:50:55;22.00;99.90
24614;DHT22;12760;46.296;25.290;2023-07-13T04:53:21;22.00;99.90
24614;DHT22;12760;46.296;25.290;2023-07-13T04:55:47;21.90;99.90
24614;DHT22;12760;46.296;25.290;2023-07-13T04:58:13;22.00;99.90
24614;DHT22;12760;46.296;25.290;2023-07-13T05:00:39;22.10;99.90
24614;DHT22;12760;46.296;25.290;2023-07-13T05:03:05;22.10;99.90
24614;DHT22;12760;46.296;25.290;2023-07-13T05:05:31;22.10;99.90
24614;DHT22;12760;46.296;25.290;2023-07-13T05:07:57;22.20;99.90
24614;DHT22;12760;46.296;25.290;2023-07-13T05:10:23;22.20;99.90
24614;DHT22;12760;46.296;25.290;2023-07-13T05:12:49;22.10;99.90
24614;DHT22;12760;46.296;25.290;2023-07-13T05:15:15;22.20;99.90
24614;DHT22;12760;46.296;25.290;2023-07-13T05:17:41;22.30;99.90
24614;DHT22;12760;46.296;25.290;2023-07-13T05:20:08;22.30;99.90
24614;DHT22;12760;46.296;25.290;2023-07-13T05:22:35;22.20;99.90
24614;DHT22;12760;46.296;25.290;2023-07-13T05:25:04;22.30;99.90
24614;DHT22;12760;46.296;25.290;2023-07-13T05:27:30;22.30;99.90
24614;DHT22;12760;46.296;25.290;2023-07-13T05:29:56;22.40;99.90
24614;DHT22;12760;46.296;25.290;2023-07-13T05:32:21;22.40;99.90
24614;DHT22;12760;46.296;25.290;2023-07-13T05:34:47;22.40;99.90
24614;DHT22;12760;46.296;25.290;2023-07-13T05:37:13;22.50;99.90
24614;DHT22;12760;46.296;25.290;2023-07-13T05:39:38;22.70;99.90
24614;DHT22;12760;46.296;25.290;2023-07-13T05:42:05;22.80;99.90
24614;DHT22;12760;46.296;25.290;2023-07-13T05:44:31;23.00;99.90
24614;DHT22;12760;46.296;25.290;2023-07-13T05:46:56;23.10;99.90
24614;DHT22;12760;46.296;25.290;2023-07-13T05:49:22;23.20;99.90
24614;DHT22;12760;46.296;25.290;2023-07-13T05:51:48;23.40;99.90
24614;DHT22;12760;46.296;25.290;2023-07-13T05:54:14;23.60;99.90
24614;DHT22;12760;46.296;25.290;2023-07-13T05:56:40;23.80;99.90
24614;DHT22;12760;46.296;25.290;2023-07-13T05:59:05;24.10;99.90
24614;DHT22;12760;46.296;25.290;2023-07-13T06:01:31;24.30;99.90
24614;DHT22;12760;46.296;25.290;2023-07-13T06:03:57;24.30;99.90
24614;DHT22;12760;46.296;25.290;2023-07-13T06:06:23;24.50;99.90
24614;DHT22;12760;46.296;25.290;2023-07-13T06:08:48;24.50;99.90
24614;DHT22;12760;46.296;25.290;2023-07-13T06:11:20;24.70;99.90
24614;DHT22;12760;46.296;25.290;2023-07-13T06:13:46;24.70;99.90
24614;DHT22;12760;46.296;25.290;2023-07-13T06:16:13;24.90;99.90
24614;DHT22;12760;46.296;25.290;2023-07-13T06:18:39;25.10;99.90
24614;DHT22;12760;46.296;25.290;2023-07-13T06:21:20;25.30;99.90
24614;DHT22;12760;46.296;25.290;2023-07-13T06:23:47;25.60;99.90
24614;DHT22;12760;46.296;25.290;2023-07-13T06:26:17;25.60;99.90
24614;DHT22;12760;46.296;25.290;2023-07-13T06:28:44;25.70;99.90
24614;DHT22;12760;46.296;25.290;2023-07-13T06:31:11;26.00;99.90
24614;DHT22;12760;46.296;25.290;2023-07-13T06:33:37;26.20;99.90
24614;DHT22;12760;46.296;25.290;2023-07-13T06:36:05;26.50;99.90
24614;DHT22;12760;46.296;25.290;2023-07-13T06:38:31;26.60;99.90
24614;DHT22;12760;46.296;25.290;2023-07-13T06:40:57;26.80;99.90
24614;DHT22;12760;46.296;25.290;2023-07-13T06:43:23;26.90;99.90
24614;DHT22;12760;46.296;25.290;2023-07-13T06:45:50;27.00;99.90
24614;DHT22;12760;46.296;25.290;2023-07-13T06:48:17;27.10;99.90
24614;DHT22;12760;46.296;25.290;2023-07-13T06:50:43;27.20;99.90
24614;DHT22;12760;46.296;25.290;2023-07-13T06:53:10;27.30;99.90
24614;DHT22;12760;46.296;25.290;2023-07-13T06:55:36;27.50;99.90
24614;DHT22;12760;46.296;25.290;2023-07-13T06:58:02;27.60;99.90
24614;DHT22;12760;46.296;25.290;2023-07-13T07:00:28;27.70;99.90
24614;DHT22;12760;46.296;25.290;2023-07-13T07:02:54;27.70;99.90
24614;DHT22;12760;46.296;25.290;2023-07-13T07:05:20;27.90;99.90
24614;DHT22;12760;46.296;25.290;2023-07-13T07:07:49;28.10;99.90
24614;DHT22;12760;46.296;25.290;2023-07-13T07:10:14;28.30;99.90
24614;DHT22;12760;46.296;25.290;2023-07-13T07:12:40;28.40;99.90
24614;DHT22;12760;46.296;25.290;2023-07-13T07:15:06;28.50;99.90
24614;DHT22;12760;46.296;25.290;2023-07-13T07:17:32;28.50;99.90
24614;DHT22;12760;46.296;25.290;2023-07-13T07:19:57;28.60;99.90
24614;DHT22;12760;46.296;25.290;2023-07-13T07:22:23;29.00;99.90
24614;DHT22;12760;46.296;25.290;2023-07-13T07:24:52;28.90;99.90
24614;DHT22;12760;46.296;25.290;2023-07-13T07:27:18;29.00;99.90
24614;DHT22;12760;46.296;25.290;2023-07-13T07:29:44;29.00;99.90
24614;DHT22;12760;46.296;25.290;2023-07-13T07:32:09;29.10;99.90
24614;DHT22;12760;46.296;25.290;2023-07-13T07:34:35;29.20;99.90
24614;DHT22;12760;46.296;25.290;2023-07-13T07:37:02;29.30;99.90
24614;DHT22;12760;46.296;25.290;2023-07-13T07:39:28;29.40;99.90
24614;DHT22;12760;46.296;25.290;2023-07-13T07:41:54;29.50;99.90
24614;DHT22;12760;46.296;25.290;2023-07-13T07:44:19;29.70;99.90
24614;DHT22;12760;46.296;25.290;2023-07-13T07:46:45;29.80;99.90
24614;DHT22;12760;46.296;25.290;2023-07-13T07:49:11;29.90;99.90
24614;DHT22;12760;46.296;25.290;2023-07-13T07:51:37;30.00;99.90
24614;DHT22;12760;46.296;25.290;2023-07-13T07:54:04;30.20;99.90
24614;DHT22;12760;46.296;25.290;2023-07-13T07:56:30;30.30;99.90
24614;DHT22;12760;46.296;25.290;2023-07-13T07:58:56;30.10;99.90
24614;DHT22;12760;46.296;25.290;2023-07-13T08:01:22;30.20;99.90
24614;DHT22;12760;46.296;25.290;2023-07-13T08:03:48;30.30;99.90
24614;DHT22;12760;46.296;25.290;2023-07-13T08:06:13;30.30;99.90
24614;DHT22;12760;46.296;25.290;2023-07-13T08:08:39;30.20;99.90
24614;DHT22;12760;46.296;25.290;2023-07-13T08:11:06;30.30;99.90
24614;DHT22;12760;46.296;25.290;2023-07-13T08:13:33;30.40;99.90
24614;DHT22;12760;46.296;25.290;2023-07-13T08:15:59;30.60;99.90
24614;DHT22;12760;46.296;25.290;2023-07-13T08:18:25;30.50;99.90
24614;DHT22;12760;46.296;25.290;2023-07-13T08:20:50;30.70;99.90
24614;DHT22;12760;46.296;25.290;2023-07-13T08:23:17;30.70;99.90
24614;DHT22;12760;46.296;25.290;2023-07-13T08:25:49;30.60;99.90
24614;DHT22;12760;46.296;25.290;2023-07-13T08:28:15;30.80;99.90
24614;DHT22;12760;46.296;25.290;2023-07-13T08:30:41;30.90;99.90
24614;DHT22;12760;46.296;25.290;2023-07-13T08:33:07;30.70;99.90
24614;DHT22;12760;46.296;25.290;2023-07-13T08:35:32;30.80;99.90
24614;DHT22;12760;46.296;25.290;2023-07-13T08:37:58;31.00;99.90
24614;DHT22;12760;46.296;25.290;2023-07-13T08:40:26;31.10;99.90
24614;DHT22;12760;46.296;25.290;2023-07-13T08:42:59;31.20;99.90
24614;DHT22;12760;46.296;25.290;2023-07-13T08:48:12;31.30;99.90
24614;DHT22;12760;46.296;25.290;2023-07-13T08:50:49;31.30;99.90
24614;DHT22;12760;46.296;25.290;2023-07-13T08:53:17;31.50;99.90
24614;DHT22;12760;46.296;25.290;2023-07-13T08:55:44;31.70;99.90
24614;DHT22;12760;46.296;25.290;2023-07-13T08:58:15;31.60;99.90
24614;DHT22;12760;46.296;25.290;2023-07-13T09:00:58;31.50;99.90
24614;DHT22;12760;46.296;25.290;2023-07-13T09:03:37;31.80;99.90
24614;DHT22;12760;46.296;25.290;2023-07-13T09:06:04;32.00;99.90
24614;DHT22;12760;46.296;25.290;2023-07-13T09:09:01;31.80;99.90
24614;DHT22;12760;46.296;25.290;2023-07-13T09:14:33;32.30;99.90
24614;DHT22;12760;46.296;25.290;2023-07-13T09:17:05;32.40;99.90
24614;DHT22;12760;46.296;25.290;2023-07-13T09:19:32;32.40;99.90
24614;DHT22;12760;46.296;25.290;2023-07-13T09:21:59;32.40;99.90
24614;DHT22;12760;46.296;25.290;2023-07-13T09:24:41;32.40;99.90
24614;DHT22;12760;46.296;25.290;2023-07-13T09:27:21;32.10;99.90
24614;DHT22;12760;46.296;25.290;2023-07-13T09:30:17;32.00;99.90
24614;DHT22;12760;46.296;25.290;2023-07-13T09:32:51;32.10;99.90
24614;DHT22;12760;46.296;25.290;2023-07-13T09:35:25;32.10;99.90
24614;DHT22;12760;46.296;25.290;2023-07-13T09:37:58;32.10;99.90
24614;DHT22;12760;46.296;25.290;2023-07-13T09:40:35;32.40;99.90
24614;DHT22;12760;46.296;25.290;2023-07-13T09:43:03;32.40;99.90
24614;DHT22;12760;46.296;25.290;2023-07-13T09:45:33;32.50;99.90
24614;DHT22;12760;46.296;25.290;2023-07-13T09:48:12;32.50;99.90
24614;DHT22;12760;46.296;25.290;2023-07-13T09:50:39;32.60;99.90
24614;DHT22;12760;46.296;25.290;2023-07-13T09:53:15;32.70;99.90
24614;DHT22;12760;46.296;25.290;2023-07-13T09:55:43;32.60;99.90
24614;DHT22;12760;46.296;25.290;2023-07-13T09:58:14;32.70;99.90
24614;DHT22;12760;46.296;25.290;2023-07-13T10:00:43;32.60;99.90
24614;DHT22;12760;46.296;25.290;2023-07-13T10:03:22;32.50;99.90
24614;DHT22;12760;46.296;25.290;2023-07-13T10:05:50;32.60;99.90
24614;DHT22;12760;46.296;25.290;2023-07-13T10:08:28;32.60;99.90
24614;DHT22;12760;46.296;25.290;2023-07-13T10:11:10;32.60;99.90
24614;DHT22;12760;46.296;25.290;2023-07-13T10:13:41;32.60;99.90
24614;DHT22;12760;46.296;25.290;2023-07-13T10:16:08;32.60;99.90
24614;DHT22;12760;46.296;25.290;2023-07-13T10:18:58;32.70;99.90
24614;DHT22;12760;46.296;25.290;2023-07-13T10:21:32;32.50;99.90
24614;DHT22;12760;46.296;25.290;2023-07-13T10:24:26;32.70;99.90
24614;DHT22;12760;46.296;25.290;2023-07-13T10:27:20;32.60;99.90
24614;DHT22;12760;46.296;25.290;2023-07-13T10:29:53;32.60;99.90
24614;DHT22;12760;46.296;25.290;2023-07-13T10:32:22;33.00;99.90
24614;DHT22;12760;46.296;25.290;2023-07-13T10:34:50;33.00;99.90
24614;DHT22;12760;46.296;25.290;2023-07-13T10:37:24;33.10;99.90
24614;DHT22;12760;46.296;25.290;2023-07-13T10:39:54;33.30;99.90
24614;DHT22;12760;46.296;25.290;2023-07-13T10:42:37;33.40;99.90
24614;DHT22;12760;46.296;25.290;2023-07-13T10:45:14;33.30;99.90
24614;DHT22;12760;46.296;25.290;2023-07-13T10:47:42;33.20;99.90
24614;DHT22;12760;46.296;25.290;2023-07-13T10:50:17;33.10;99.90
24614;DHT22;12760;46.296;25.290;2023-07-13T10:52:50;33.00;99.90
24614;DHT22;12760;46.296;25.290;2023-07-13T10:58:33;32.80;99.90
24614;DHT22;12760;46.296;25.290;2023-07-13T11:03:30;32.70;99.90
24614;DHT22;12760;46.296;25.290;2023-07-13T11:11:32;32.70;99.90
24614;DHT22;12760;46.296;25.290;2023-07-13T11:14:00;32.80;99.90
24614;DHT22;12760;46.296;25.290;2023-07-13T11:16:42;33.00;99.90
24614;DHT22;12760;46.296;25.290;2023-07-13T11:19:25;33.20;99.90
24614;DHT22;12760;46.296;25.290;2023-07-13T11:25:02;33.40;99.90
24614;DHT22;12760;46.296;25.290;2023-07-13T11:27:36;33.30;99.90
24614;DHT22;12760;46.296;25.290;2023-07-13T11:33:03;33.10;99.90
24614;DHT22;12760;46.296;25.290;2023-07-13T11:35:35;33.00;99.90
24614;DHT22;12760;46.296;25.290;2023-07-13T11:38:02;33.00;99.90
24614;DHT22;12760;46.296;25.290;2023-07-13T11:40:29;33.00;99.90
24614;DHT22;12760;46.296;25.290;2023-07-13T11:43:00;33.00;99.90
24614;DHT22;12760;46.296;25.290;2023-07-13T11:45:27;33.10;99.90
24614;DHT22;12760;46.296;25.290;2023-07-13T11:47:54;33.20;99.90
24614;DHT22;12760;46.296;25.290;2023-07-13T11:50:24;33.20;99.90
24614;DHT22;12760;46.296;25.290;2023-07-13T11:52:51;33.30;99.90
24614;DHT22;12760;46.296;25.290;2023-07-13T11:55:20;33.30;99.90
24614;DHT22;12760;46.296;25.290;2023-07-13T11:58:01;33.30;99.90
24614;DHT22;12760;46.296;25.290;2023-07-13T12:00:30;33.30;99.90
24614;DHT22;12760;46.296;25.290;2023-07-13T12:03:00;33.40;99.90
24614;DHT22;12760;46.296;25.290;2023-07-13T12:05:28;33.30;99.90
24614;DHT22;12760;46.296;25.290;2023-07-13T12:07:56;33.40;99.90
24614;DHT22;12760;46.296;25.290;2023-07-13T12:10:29;33.40;99.90
24614;DHT22;12760;46.296;25.290;2023-07-13T12:12:57;33.40;99.90
24614;DHT22;12760;46.296;25.290;2023-07-13T12:15:33;33.40;99.90
24614;DHT22;12760;46.296;25.290;2023-07-13T12:18:00;33.40;99.90
24614;DHT22;12760;46.296;25.290;2023-07-13T12:20:35;33.50;99.90
24614;DHT22;12760;46.296;25.290;2023-07-13T12:23:05;33.50;99.90
24614;DHT22;12760;46.296;25.290;2023-07-13T12:25:31;33.40;99.90
24614;DHT22;12760;46.296;25.290;2023-07-13T12:27:57;33.50;99.90
24614;DHT22;12760;46.296;25.290;2023-07-13T12:30:30;33.40;99.90
24614;DHT22;12760;46.296;25.290;2023-07-13T12:33:02;33.50;99.90
24614;DHT22;12760;46.296;25.290;2023-07-13T12:35:32;33.50;99.90
24614;DHT22;12760;46.296;25.290;2023-07-13T12:38:08;33.30;99.90
24614;DHT22;12760;46.296;25.290;2023-07-13T12:40:36;33.20;99.90
24614;DHT22;12760;46.296;25.290;2023-07-13T12:43:03;33.30;99.90
24614;DHT22;12760;46.296;25.290;2023-07-13T12:45:33;33.40;99.90
24614;DHT22;12760;46.296;25.290;2023-07-13T12:48:05;33.20;99.80
24614;DHT22;12760;46.296;25.290;2023-07-13T12:50:39;33.30;99.90
24614;DHT22;12760;46.296;25.290;2023-07-13T12:53:16;33.40;99.90
24614;DHT22;12760;46.296;25.290;2023-07-13T12:55:49;33.30;99.30
24614;DHT22;12760;46.296;25.290;2023-07-13T12:58:36;33.20;99.10
24614;DHT22;12760;46.296;25.290;2023-07-13T13:01:04;33.30;99.90
24614;DHT22;12760;46.296;25.290;2023-07-13T13:03:54;33.40;99.30
24614;DHT22;12760;46.296;25.290;2023-07-13T13:06:28;33.40;99.30
24614;DHT22;12760;46.296;25.290;2023-07-13T13:08:56;33.40;99.80
24614;DHT22;12760;46.296;25.290;2023-07-13T13:11:24;33.40;99.10
24614;DHT22;12760;46.296;25.290;2023-07-13T13:13:52;33.40;98.90
24614;DHT22;12760;46.296;25.290;2023-07-13T13:16:30;33.40;99.00
24614;DHT22;12760;46.296;25.290;2023-07-13T13:19:24;33.60;99.10
24614;DHT22;12760;46.296;25.290;2023-07-13T13:21:53;33.60;99.10
24614;DHT22;12760;46.296;25.290;2023-07-13T13:24:21;33.50;99.20
24614;DHT22;12760;46.296;25.290;2023-07-13T13:26:48;33.70;99.30
24614;DHT22;12760;46.296;25.290;2023-07-13T13:29:21;33.70;98.90
24614;DHT22;12760;46.296;25.290;2023-07-13T13:31:49;33.80;99.30
24614;DHT22;12760;46.296;25.290;2023-07-13T13:34:17;33.60;98.70
24614;DHT22;12760;46.296;25.290;2023-07-13T13:36:44;33.50;99.10
24614;DHT22;12760;46.296;25.290;2023-07-13T13:41:43;33.50;99.00
24614;DHT22;12760;46.296;25.290;2023-07-13T13:44:10;33.60;99.50
24614;DHT22;12760;46.296;25.290;2023-07-13T13:46:36;33.70;99.00
24614;DHT22;12760;46.296;25.290;2023-07-13T13:49:02;33.70;98.80
24614;DHT22;12760;46.296;25.290;2023-07-13T13:51:28;33.60;98.90
24614;DHT22;12760;46.296;25.290;2023-07-13T13:53:55;33.60;98.90
24614;DHT22;12760;46.296;25.290;2023-07-13T13:56:20;33.50;99.60
24614;DHT22;12760;46.296;25.290;2023-07-13T13:58:46;33.50;99.50
24614;DHT22;12760;46.296;25.290;2023-07-13T14:01:17;33.60;99.40
24614;DHT22;12760;46.296;25.290;2023-07-13T14:03:43;33.50;99.60
24614;DHT22;12760;46.296;25.290;2023-07-13T14:06:19;33.40;99.50
24614;DHT22;12760;46.296;25.290;2023-07-13T14:08:45;33.60;99.90
24614;DHT22;12760;46.296;25.290;2023-07-13T14:11:18;33.50;99.90
24614;DHT22;12760;46.296;25.290;2023-07-13T14:13:48;33.60;99.90
24614;DHT22;12760;46.296;25.290;2023-07-13T14:16:19;33.60;99.90
24614;DHT22;12760;46.296;25.290;2023-07-13T14:18:47;33.50;99.90
24614;DHT22;12760;46.296;25.290;2023-07-13T14:21:22;33.40;99.90
24614;DHT22;12760;46.296;25.290;2023-07-13T14:23:49;33.40;99.90
24614;DHT22;12760;46.296;25.290;2023-07-13T14:26:18;33.40;99.90
24614;DHT22;12760;46.296;25.290;2023-07-13T14:28:49;33.40;99.90
24614;DHT22;12760;46.296;25.290;2023-07-13T14:31:17;33.40;99.90
24614;DHT22;12760;46.296;25.290;2023-07-13T14:33:43;33.40;99.90
24614;DHT22;12760;46.296;25.290;2023-07-13T14:36:30;33.40;99.90
24614;DHT22;12760;46.296;25.290;2023-07-13T14:39:01;33.30;99.90
24614;DHT22;12760;46.296;25.290;2023-07-13T14:41:31;33.20;99.90
24614;DHT22;12760;46.296;25.290;2023-07-13T14:43:57;33.20;99.90
24614;DHT22;12760;46.296;25.290;2023-07-13T14:46:30;33.30;99.90
24614;DHT22;12760;46.296;25.290;2023-07-13T14:49:02;33.30;99.90
24614;DHT22;12760;46.296;25.290;2023-07-13T14:51:29;33.30;99.90
24614;DHT22;12760;46.296;25.290;2023-07-13T14:53:55;33.30;99.90
24614;DHT22;12760;46.296;25.290;2023-07-13T14:56:21;33.00;99.90
24614;DHT22;12760;46.296;25.290;2023-07-13T14:58:47;33.00;99.90
24614;DHT22;12760;46.296;25.290;2023-07-13T15:01:14;33.00;99.90
24614;DHT22;12760;46.296;25.290;2023-07-13T15:03:45;32.90;99.90
24614;DHT22;12760;46.296;25.290;2023-07-13T15:06:12;33.00;99.90
24614;DHT22;12760;46.296;25.290;2023-07-13T15:08:39;33.00;99.90
24614;DHT22;12760;46.296;25.290;2023-07-13T15:11:08;33.00;99.90
24614;DHT22;12760;46.296;25.290;2023-07-13T15:13:38;32.90;99.90
24614;DHT22;12760;46.296;25.290;2023-07-13T15:16:08;33.10;99.90
24614;DHT22;12760;46.296;25.290;2023-07-13T15:18:35;33.00;99.90
24614;DHT22;12760;46.296;25.290;2023-07-13T15:21:03;33.00;99.90
24614;DHT22;12760;46.296;25.290;2023-07-13T15:23:29;33.00;99.90
24614;DHT22;12760;46.296;25.290;2023-07-13T15:25:55;33.00;99.90
24614;DHT22;12760;46.296;25.290;2023-07-13T15:28:21;33.10;99.90
24614;DHT22;12760;46.296;25.290;2023-07-13T15:30:48;33.00;99.90
24614;DHT22;12760;46.296;25.290;2023-07-13T15:33:27;33.10;99.90
24614;DHT22;12760;46.296;25.290;2023-07-13T15:35:54;33.10;99.90
24614;DHT22;12760;46.296;25.290;2023-07-13T15:38:27;33.10;99.90
24614;DHT22;12760;46.296;25.290;2023-07-13T15:40:54;33.00;99.90
24614;DHT22;12760;46.296;25.290;2023-07-13T15:43:22;32.90;99.90
24614;DHT22;12760;46.296;25.290;2023-07-13T15:45:49;32.70;99.90
24614;DHT22;12760;46.296;25.290;2023-07-13T15:50:48;32.50;99.90
24614;DHT22;12760;46.296;25.290;2023-07-13T15:53:19;32.40;99.90
24614;DHT22;12760;46.296;25.290;2023-07-13T15:55:46;32.50;99.90